Time;durP1;ratioP1;P1;durP2;ratioP2;P2;SDS_P1;SDS_P2;PMS_P1;PMS_P2;Temp;Humidity;BMP_temperature;BMP_pressure;BME280_temperature;BME280_humidity;BME280_pressure;Samples;Min_cycle;Max_cycle;Signal;HPM_P1;HPM_P2
2022/05/01 00:01:39;;;;;;;2.42;2.20;;;;;;;;;;4983094;28;20078;-83
2022/05/01 00:04:04;;;;;;;2.75;1.83;;;;;;;;;;4982942;28;20057;-84
2022/05/01 00:06:33;;;;;;;2.65;1.92;;;;;;;;;;4982304;28;20399;-83
2022/05/01 00:09:00;;;;;;;3.17;2.30;;;;;;;;;;5000216;28;20034;-83
2022/05/01 00:11:26;;;;;;;3.20;2.28;;;;;;;;;;4999352;28;20038;-83
2022/05/01 00:13:51;;;;;;;3.25;2.40;;;;;;;;;;4982117;28;20049;-84
2022/05/01 00:16:17;;;;;;;3.13;2.50;;;;;;;;;;4998419;28;20031;-83
2022/05/01 00:18:42;;;;;;;3.35;2.30;;;;;;;;;;4964830;28;20109;-84
2022/05/01 00:21:08;;;;;;;3.67;2.33;;;;;;;;;;4980869;28;20042;-84
2022/05/01 00:23:33;;;;;;;3.40;2.40;;;;;;;;;;4980829;28;20038;-84
2022/05/01 00:25:59;;;;;;;2.60;2.20;;;;;;;;;;4980084;28;20046;-83
2022/05/01 00:28:25;;;;;;;2.47;2.28;;;;;;;;;;4980184;28;20038;-83
2022/05/01 00:30:50;;;;;;;3.00;2.25;;;;;;;;;;4964945;28;20037;-84
2022/05/01 00:38:44;;;;;;;3.10;2.08;;;;;;;;;;4983180;28;20038;-84
2022/05/01 00:41:11;;;;;;;2.70;2.17;;;;;;;;;;4980511;28;20053;-84
2022/05/01 00:44:00;;;;;;;2.92;2.13;;;;;;;;;;4998505;28;20054;-84
2022/05/01 00:46:25;;;;;;;2.78;2.00;;;;;;;;;;4981341;28;20398;-84
2022/05/01 00:48:51;;;;;;;3.00;2.00;;;;;;;;;;4980795;28;20034;-84
2022/05/01 00:51:17;;;;;;;5.00;2.00;;;;;;;;;;4997615;28;20038;-84
2022/05/01 00:53:43;;;;;;;3.47;1.80;;;;;;;;;;4980741;28;20034;-84
2022/05/01 00:56:09;;;;;;;2.65;1.90;;;;;;;;;;4964282;28;20478;-84
2022/05/01 00:58:34;;;;;;;2.35;1.77;;;;;;;;;;4980851;28;20113;-84
2022/05/01 01:01:00;;;;;;;2.25;1.80;;;;;;;;;;4980814;28;20038;-84
2022/05/01 01:03:25;;;;;;;2.95;1.80;;;;;;;;;;4997575;28;20084;-84
2022/05/01 01:05:51;;;;;;;2.83;2.10;;;;;;;;;;4979381;28;20042;-84
2022/05/01 01:08:16;;;;;;;2.72;1.98;;;;;;;;;;4996466;28;20038;-84
2022/05/01 01:10:42;;;;;;;2.30;1.80;;;;;;;;;;4979305;28;20117;-84
2022/05/01 01:13:07;;;;;;;2.30;1.77;;;;;;;;;;4948500;28;20054;-84
2022/05/01 01:15:34;;;;;;;3.13;2.00;;;;;;;;;;4979969;28;20514;-83
2022/05/01 01:17:59;;;;;;;3.65;2.10;;;;;;;;;;4980430;28;20505;-84
2022/05/01 01:20:26;;;;;;;2.72;2.03;;;;;;;;;;4980454;28;20032;-84
2022/05/01 01:22:56;;;;;;;2.50;1.80;;;;;;;;;;4980515;28;20109;-83
2022/05/01 01:25:24;;;;;;;2.53;1.83;;;;;;;;;;4979889;28;20509;-83
2022/05/01 01:27:50;;;;;;;2.33;1.67;;;;;;;;;;4963359;28;20046;-84
2022/05/01 01:32:59;;;;;;;2.10;1.80;;;;;;;;;;4995184;28;20042;-84
2022/05/01 01:35:25;;;;;;;4.15;1.90;;;;;;;;;;4979443;28;20053;-83
2022/05/01 01:37:51;;;;;;;2.65;1.70;;;;;;;;;;4979720;28;20042;-84
2022/05/01 01:40:22;;;;;;;1.92;1.60;;;;;;;;;;4963506;28;20025;-84
2022/05/01 01:42:49;;;;;;;2.47;1.77;;;;;;;;;;4980165;28;20064;-84
2022/05/01 01:45:14;;;;;;;2.40;1.77;;;;;;;;;;4979436;28;20102;-84
2022/05/01 01:47:40;;;;;;;2.42;1.80;;;;;;;;;;4963712;28;20533;-84
2022/05/01 01:50:05;;;;;;;2.10;1.63;;;;;;;;;;4979627;28;20124;-84
2022/05/01 01:52:33;;;;;;;2.10;1.60;;;;;;;;;;4997578;28;20077;-84
2022/05/01 01:55:00;;;;;;;2.45;1.80;;;;;;;;;;4964180;28;20026;-84
2022/05/01 01:57:25;;;;;;;2.58;1.85;;;;;;;;;;4964129;28;20088;-84
2022/05/01 01:59:51;;;;;;;2.10;1.67;;;;;;;;;;4997014;28;20034;-83
2022/05/01 02:02:16;;;;;;;2.20;1.80;;;;;;;;;;4979714;28;20074;-83
2022/05/01 02:04:41;;;;;;;2.03;1.60;;;;;;;;;;4962547;28;20041;-83
2022/05/01 02:07:07;;;;;;;2.22;1.70;;;;;;;;;;4979016;28;20487;-83
2022/05/01 02:09:37;;;;;;;1.85;1.58;;;;;;;;;;4979722;28;20030;-83
2022/05/01 02:12:08;;;;;;;3.97;1.60;;;;;;;;;;4979243;28;20041;-83
2022/05/01 02:14:36;;;;;;;1.83;1.45;;;;;;;;;;4979532;28;20035;-83
2022/05/01 02:17:02;;;;;;;3.25;1.58;;;;;;;;;;4979770;28;20045;-83
2022/05/01 02:19:29;;;;;;;2.78;1.70;;;;;;;;;;4979217;28;20035;-83
2022/05/01 02:21:54;;;;;;;2.00;1.60;;;;;;;;;;4963398;28;20042;-84
2022/05/01 02:24:20;;;;;;;2.42;1.70;;;;;;;;;;4978625;28;20172;-83
2022/05/01 02:26:46;;;;;;;1.90;1.60;;;;;;;;;;4995785;28;20045;-83
2022/05/01 02:29:12;;;;;;;2.17;1.60;;;;;;;;;;4979613;28;20038;-83
2022/05/01 02:31:38;;;;;;;3.33;1.55;;;;;;;;;;4978749;28;20036;-84
2022/05/01 02:34:04;;;;;;;2.72;1.70;;;;;;;;;;4978284;28;20121;-83
2022/05/01 02:36:29;;;;;;;2.85;1.50;;;;;;;;;;4946537;28;20477;-83
2022/05/01 02:38:55;;;;;;;2.00;1.40;;;;;;;;;;4978529;28;20038;-85
2022/05/01 02:41:21;;;;;;;2.20;1.48;;;;;;;;;;4996257;28;20411;-83
2022/05/01 02:43:47;;;;;;;1.50;1.40;;;;;;;;;;4977906;28;20117;-84
2022/05/01 02:46:13;;;;;;;1.40;1.30;;;;;;;;;;4978180;28;20034;-83
2022/05/01 02:48:39;;;;;;;1.65;1.40;;;;;;;;;;4978653;28;20081;-83
2022/05/01 02:51:04;;;;;;;1.30;1.20;;;;;;;;;;4978872;28;20034;-83
2022/05/01 02:53:33;;;;;;;1.75;1.30;;;;;;;;;;4981831;28;20038;-83
2022/05/01 02:56:00;;;;;;;1.70;1.20;;;;;;;;;;4999394;28;20042;-84
2022/05/01 02:58:28;;;;;;;1.50;1.20;;;;;;;;;;4999859;28;20046;-85
2022/05/01 03:00:55;;;;;;;1.42;1.30;;;;;;;;;;4966285;28;20027;-83
2022/05/01 03:03:21;;;;;;;3.40;1.50;;;;;;;;;;4981747;28;20387;-85
2022/05/01 03:05:47;;;;;;;2.42;1.20;;;;;;;;;;4982164;28;20036;-85
2022/05/01 03:08:12;;;;;;;1.45;1.10;;;;;;;;;;4982011;28;20116;-85
2022/05/01 03:10:38;;;;;;;1.63;1.25;;;;;;;;;;4966311;28;20027;-84
2022/05/01 03:13:04;;;;;;;1.40;1.20;;;;;;;;;;4982157;28;20030;-84
2022/05/01 03:15:29;;;;;;;2.20;1.20;;;;;;;;;;4998712;28;20034;-84
2022/05/01 03:23:23;;;;;;;1.42;1.20;;;;;;;;;;4984846;28;20046;-84
2022/05/01 03:25:48;;;;;;;1.20;1.10;;;;;;;;;;4965337;28;20125;-84
2022/05/01 03:28:13;;;;;;;1.70;1.20;;;;;;;;;;4981651;28;20121;-84
2022/05/01 03:30:39;;;;;;;1.42;1.10;;;;;;;;;;4998582;28;20069;-84
2022/05/01 03:33:07;;;;;;;1.63;1.30;;;;;;;;;;4982216;28;20062;-84
2022/05/01 03:35:35;;;;;;;1.10;1.00;;;;;;;;;;4998083;28;20033;-84
2022/05/01 03:38:04;;;;;;;1.17;1.08;;;;;;;;;;4982234;28;20030;-84
2022/05/01 03:40:30;;;;;;;1.30;1.20;;;;;;;;;;4997992;28;20038;-84
2022/05/01 03:42:55;;;;;;;1.13;1.02;;;;;;;;;;4982042;28;20114;-84
2022/05/01 03:45:21;;;;;;;1.35;1.15;;;;;;;;;;4980449;28;20427;-84
2022/05/01 03:47:46;;;;;;;1.20;1.10;;;;;;;;;;4999706;28;20506;-84
2022/05/01 03:50:11;;;;;;;1.15;1.05;;;;;;;;;;4981401;28;20038;-84
2022/05/01 03:52:37;;;;;;;1.20;0.93;;;;;;;;;;4965538;28;20035;-84
2022/05/01 03:55:03;;;;;;;1.38;1.20;;;;;;;;;;4964680;28;20034;-84
2022/05/01 03:57:29;;;;;;;1.20;1.02;;;;;;;;;;4982030;28;20028;-84
2022/05/01 03:59:54;;;;;;;2.67;1.20;;;;;;;;;;4981295;28;20037;-84
2022/05/01 04:02:20;;;;;;;1.30;1.08;;;;;;;;;;4997672;28;20483;-84
2022/05/01 04:04:46;;;;;;;1.05;0.82;;;;;;;;;;4980419;28;20380;-84
2022/05/01 04:07:12;;;;;;;1.20;1.10;;;;;;;;;;4981418;28;20053;-84
2022/05/01 04:09:38;;;;;;;1.10;1.00;;;;;;;;;;4980638;28;20495;-84
2022/05/01 04:12:06;;;;;;;1.30;1.02;;;;;;;;;;4996772;28;20038;-84
2022/05/01 04:14:32;;;;;;;1.30;1.15;;;;;;;;;;4964625;28;20068;-84
2022/05/01 04:16:59;;;;;;;1.90;1.10;;;;;;;;;;4998184;28;20041;-85
2022/05/01 04:19:25;;;;;;;1.80;1.30;;;;;;;;;;4980889;28;20037;-84
2022/05/01 04:21:51;;;;;;;1.40;1.00;;;;;;;;;;4964233;28;20073;-84
2022/05/01 04:24:16;;;;;;;2.00;1.50;;;;;;;;;;4979841;28;20042;-84
2022/05/01 04:26:42;;;;;;;2.10;1.70;;;;;;;;;;4980216;28;20384;-84
2022/05/01 04:29:42;;;;;;;2.97;1.70;;;;;;;;;;4980309;28;20509;-84
2022/05/01 04:31:59;;;;;;;2.47;1.83;;;;;;;;;;5010586;23;20152;-86
2022/05/01 04:34:24;;;;;;;2.20;1.90;;;;;;;;;;5018265;28;20493;-85
2022/05/01 04:36:50;;;;;;;2.15;1.50;;;;;;;;;;5019131;28;20037;-84
2022/05/01 04:39:15;;;;;;;3.97;2.63;;;;;;;;;;5018886;28;20088;-83
2022/05/01 04:41:41;;;;;;;3.60;2.95;;;;;;;;;;5035748;28;20120;-84
2022/05/01 04:44:07;;;;;;;3.45;2.20;;;;;;;;;;4984894;28;20069;-84
2022/05/01 04:46:32;;;;;;;2.20;1.65;;;;;;;;;;5017570;28;20034;-83
2022/05/01 04:48:58;;;;;;;5.00;2.20;;;;;;;;;;5017341;28;20072;-83
2022/05/01 04:51:23;;;;;;;4.28;2.33;;;;;;;;;;5034771;28;20106;-84
2022/05/01 04:53:48;;;;;;;5.60;3.70;;;;;;;;;;5000295;28;20520;-85
2022/05/01 04:58:58;;;;;;;3.92;2.65;;;;;;;;;;5005360;28;20037;-83
2022/05/01 05:01:23;;;;;;;3.42;2.03;;;;;;;;;;5033561;28;20038;-85
2022/05/01 05:03:49;;;;;;;2.85;1.30;;;;;;;;;;5016092;28;20052;-84
2022/05/01 05:06:15;;;;;;;2.05;1.40;;;;;;;;;;4999247;28;20040;-82
2022/05/01 05:11:24;;;;;;;4.35;1.45;;;;;;;;;;5033394;28;20041;-85
2022/05/01 05:13:52;;;;;;;1.92;1.27;;;;;;;;;;5032843;28;20393;-83
2022/05/01 05:16:18;;;;;;;3.30;1.40;;;;;;;;;;5024684;28;20051;-85
2022/05/01 05:18:43;;;;;;;2.83;1.40;;;;;;;;;;5000821;28;20433;-84
2022/05/01 05:21:08;;;;;;;3.47;1.30;;;;;;;;;;4993799;28;20045;-85
2022/05/01 05:23:34;;;;;;;2.25;1.40;;;;;;;;;;5001689;28;20067;-84
2022/05/01 05:25:59;;;;;;;1.83;1.30;;;;;;;;;;5035404;28;20473;-84
2022/05/01 05:28:25;;;;;;;1.55;1.20;;;;;;;;;;5001308;28;20044;-85
2022/05/01 05:30:51;;;;;;;2.63;1.40;;;;;;;;;;5000947;28;20128;-86
2022/05/01 05:33:17;;;;;;;1.70;1.20;;;;;;;;;;5001351;28;20132;-85
2022/05/01 05:35:42;;;;;;;2.05;1.30;;;;;;;;;;5001153;28;20052;-84
2022/05/01 05:38:08;;;;;;;1.75;1.30;;;;;;;;;;4985120;28;20040;-84
2022/05/01 05:40:33;;;;;;;9.48;1.40;;;;;;;;;;5001535;28;20034;-82
2022/05/01 05:42:58;;;;;;;2.72;1.75;;;;;;;;;;5034155;28;20048;-84
2022/05/01 05:45:24;;;;;;;5.72;2.70;;;;;;;;;;4999765;28;20045;-83
2022/05/01 05:47:50;;;;;;;3.15;1.70;;;;;;;;;;5034221;28;20033;-84
2022/05/01 05:50:15;;;;;;;2.90;1.30;;;;;;;;;;4984475;28;20029;-84
2022/05/01 05:52:41;;;;;;;1.60;1.20;;;;;;;;;;5036560;28;20026;-83
2022/05/01 05:55:07;;;;;;;1.48;1.20;;;;;;;;;;5018992;28;20171;-86
2022/05/01 05:57:32;;;;;;;1.00;0.90;;;;;;;;;;5037167;28;20034;-85
2022/05/01 05:59:58;;;;;;;1.38;1.00;;;;;;;;;;4986500;28;20124;-83
2022/05/01 06:02:24;;;;;;;2.15;1.10;;;;;;;;;;5017974;28;20030;-85
2022/05/01 06:04:49;;;;;;;1.85;1.20;;;;;;;;;;5001956;28;20405;-85
2022/05/01 06:07:14;;;;;;;1.63;1.20;;;;;;;;;;5018066;28;20099;-84
2022/05/01 06:09:40;;;;;;;2.78;1.40;;;;;;;;;;5018112;28;20508;-84
2022/05/01 06:12:06;;;;;;;1.20;1.10;;;;;;;;;;5017147;28;20151;-86
2022/05/01 06:14:31;;;;;;;1.60;1.20;;;;;;;;;;5016108;28;20075;-85
2022/05/01 06:16:57;;;;;;;1.50;1.20;;;;;;;;;;5009393;28;20040;-87
2022/05/01 06:19:22;;;;;;;1.60;1.40;;;;;;;;;;5000192;28;20037;-85
2022/05/01 06:21:47;;;;;;;2.33;1.80;;;;;;;;;;5015299;28;20059;-85
2022/05/01 06:24:13;;;;;;;3.63;1.60;;;;;;;;;;5024991;28;20049;-86
2022/05/01 06:26:38;;;;;;;2.25;1.60;;;;;;;;;;5017857;28;20043;-88
2022/05/01 06:29:04;;;;;;;2.30;1.50;;;;;;;;;;5038538;28;20061;-87
2022/05/01 06:31:29;;;;;;;3.45;1.30;;;;;;;;;;5020812;28;20401;-86
2022/05/01 06:33:55;;;;;;;2.10;1.40;;;;;;;;;;4971512;28;20033;-84
2022/05/01 06:36:20;;;;;;;1.30;1.02;;;;;;;;;;5002926;28;20085;-84
2022/05/01 06:38:46;;;;;;;1.42;1.10;;;;;;;;;;5003821;28;20497;-84
2022/05/01 06:41:11;;;;;;;15.70;7.75;;;;;;;;;;5003770;28;20524;-83
2022/05/01 06:43:37;;;;;;;5.70;3.10;;;;;;;;;;5019960;28;20025;-87
2022/05/01 06:46:02;;;;;;;6.32;3.15;;;;;;;;;;5003843;28;20041;-83
2022/05/01 06:48:30;;;;;;;2.30;1.73;;;;;;;;;;5004302;28;20120;-85
2022/05/01 06:50:56;;;;;;;3.80;2.55;;;;;;;;;;5039020;28;20132;-84
2022/05/01 06:53:21;;;;;;;3.22;2.10;;;;;;;;;;5037930;28;20064;-81
2022/05/01 06:55:48;;;;;;;4.80;2.65;;;;;;;;;;5003861;28;20041;-82
2022/05/01 06:58:13;;;;;;;3.70;2.25;;;;;;;;;;5004809;28;20033;-83
2022/05/01 07:00:38;;;;;;;4.15;2.15;;;;;;;;;;5038632;28;20049;-84
2022/05/01 07:03:04;;;;;;;2.03;1.70;;;;;;;;;;4988159;28;20033;-83
2022/05/01 07:05:29;;;;;;;8.23;3.72;;;;;;;;;;5020267;28;20481;-84
2022/05/01 07:07:55;;;;;;;9.00;3.50;;;;;;;;;;5038867;28;20033;-83
2022/05/01 07:10:20;;;;;;;3.67;2.00;;;;;;;;;;5004408;28;20127;-83
2022/05/01 07:12:46;;;;;;;1.70;1.20;;;;;;;;;;5028160;28;20037;-83
2022/05/01 07:15:12;;;;;;;2.72;1.20;;;;;;;;;;5002560;28;20034;-82
2022/05/01 07:17:37;;;;;;;3.45;1.10;;;;;;;;;;5018864;28;20045;-80
2022/05/01 07:20:03;;;;;;;2.50;1.30;;;;;;;;;;5019418;28;20516;-83
2022/05/01 07:22:28;;;;;;;1.58;1.40;;;;;;;;;;5019222;28;20398;-84
2022/05/01 07:24:54;;;;;;;1.52;1.25;;;;;;;;;;5018235;28;20402;-81
2022/05/01 07:27:19;;;;;;;2.35;1.00;;;;;;;;;;5036237;28;20390;-82
2022/05/01 07:29:45;;;;;;;2.17;1.60;;;;;;;;;;5018344;28;20045;-80
2022/05/01 07:32:10;;;;;;;2.70;1.40;;;;;;;;;;5018331;28;20132;-82
2022/05/01 07:34:36;;;;;;;1.23;1.08;;;;;;;;;;5002778;28;20052;-82
2022/05/01 07:37:02;;;;;;;1.20;1.00;;;;;;;;;;5020043;28;20037;-83
2022/05/01 07:39:27;;;;;;;2.22;1.17;;;;;;;;;;5020532;28;20053;-82
2022/05/01 07:41:53;;;;;;;1.63;1.20;;;;;;;;;;5020885;28;20072;-82
2022/05/01 07:44:18;;;;;;;1.63;1.10;;;;;;;;;;5037502;28;20093;-83
2022/05/01 07:46:44;;;;;;;1.42;1.10;;;;;;;;;;5004531;28;20033;-84
2022/05/01 07:49:10;;;;;;;2.65;0.90;;;;;;;;;;5020760;28;20079;-82
2022/05/01 07:51:36;;;;;;;1.00;0.90;;;;;;;;;;5004173;28;20056;-83
2022/05/01 07:54:02;;;;;;;0.93;0.90;;;;;;;;;;5003992;28;20083;-83
2022/05/01 07:56:27;;;;;;;2.95;1.40;;;;;;;;;;5004509;28;20083;-84
2022/05/01 07:58:53;;;;;;;3.15;1.30;;;;;;;;;;5038526;28;20060;-83
2022/05/01 08:01:18;;;;;;;1.45;1.20;;;;;;;;;;5046069;28;20097;-82
2022/05/01 08:06:28;;;;;;;1.48;1.00;;;;;;;;;;5037696;28;20040;-82
2022/05/01 08:08:53;;;;;;;1.35;0.90;;;;;;;;;;5029907;28;20057;-83
2022/05/01 08:11:19;;;;;;;1.58;1.02;;;;;;;;;;5021614;28;20041;-82
2022/05/01 08:13:44;;;;;;;1.63;1.20;;;;;;;;;;5004377;28;20021;-84
2022/05/01 08:16:09;;;;;;;1.40;1.10;;;;;;;;;;5020413;28;20474;-82
2022/05/01 08:21:19;;;;;;;1.30;1.10;;;;;;;;;;5006635;28;20517;-83
2022/05/01 08:23:45;;;;;;;1.30;1.10;;;;;;;;;;5020348;28;20108;-83
2022/05/01 08:26:11;;;;;;;3.67;1.30;;;;;;;;;;5019818;28;20367;-84
2022/05/01 08:28:37;;;;;;;1.73;1.20;;;;;;;;;;5019311;28;20425;-84
2022/05/01 08:31:03;;;;;;;1.10;1.00;;;;;;;;;;5019797;28;20040;-84
2022/05/01 08:33:29;;;;;;;1.30;1.10;;;;;;;;;;5019878;28;20025;-84
2022/05/01 08:35:54;;;;;;;1.45;1.08;;;;;;;;;;5002851;28;20104;-85
2022/05/01 08:38:20;;;;;;;1.20;1.10;;;;;;;;;;5018929;28;20478;-82
2022/05/01 08:40:47;;;;;;;1.42;1.20;;;;;;;;;;5018954;28;20101;-82
2022/05/01 08:43:14;;;;;;;2.28;1.63;;;;;;;;;;5019657;28;20049;-82
2022/05/01 08:46:17;;;;;;;2.47;1.50;;;;;;;;;;5019558;28;20084;-84
2022/05/01 08:49:05;;;;;;;1.77;1.42;;;;;;;;;;5037235;28;20033;-84
2022/05/01 08:51:32;;;;;;;1.80;1.50;;;;;;;;;;4986570;28;20124;-83
2022/05/01 08:53:58;;;;;;;1.60;1.30;;;;;;;;;;5019192;28;20034;-82
2022/05/01 08:56:24;;;;;;;1.52;1.33;;;;;;;;;;5037280;28;20044;-83
2022/05/01 08:58:50;;;;;;;3.05;1.48;;;;;;;;;;5003966;28;20072;-83
2022/05/01 09:01:15;;;;;;;1.20;1.10;;;;;;;;;;4987978;28;20061;-82
2022/05/01 09:03:43;;;;;;;2.00;1.20;;;;;;;;;;5026194;28;20045;-84
2022/05/01 09:06:08;;;;;;;4.00;1.60;;;;;;;;;;5038513;28;20517;-82
2022/05/01 09:08:34;;;;;;;1.67;1.27;;;;;;;;;;5019699;28;20117;-82
2022/05/01 09:12:49;;;;;;;3.22;1.33;;;;;;;;;;5003494;28;20072;-82
2022/05/01 09:13:45;;;;;;;1.98;1.40;;;;;;;;;;5022271;28;20033;-82
2022/05/01 09:16:11;;;;;;;1.88;1.30;;;;;;;;;;5002734;28;20117;-83
2022/05/01 09:18:44;;;;;;;3.72;1.50;;;;;;;;;;5002672;28;20064;-83
2022/05/01 09:21:09;;;;;;;4.07;1.50;;;;;;;;;;5019024;28;20034;-83
2022/05/01 09:23:45;;;;;;;1.85;1.35;;;;;;;;;;5036981;28;20040;-84
2022/05/01 09:26:14;;;;;;;2.47;2.03;;;;;;;;;;5018858;28;20409;-84
2022/05/01 09:28:53;;;;;;;4.85;2.72;;;;;;;;;;5002536;28;20041;-82
2022/05/01 09:31:47;;;;;;;4.07;3.20;;;;;;;;;;5019141;28;20033;-84
2022/05/01 09:34:26;;;;;;;3.53;2.70;;;;;;;;;;5001714;28;20029;-84
2022/05/01 09:36:52;;;;;;;4.50;3.15;;;;;;;;;;5003802;28;20391;-84
2022/05/01 09:39:28;;;;;;;4.68;2.90;;;;;;;;;;5018171;28;20028;-83
2022/05/01 09:41:54;;;;;;;3.92;3.13;;;;;;;;;;5003463;28;20075;-84
2022/05/01 09:44:20;;;;;;;4.68;3.47;;;;;;;;;;5001079;28;20045;-82
2022/05/01 09:46:47;;;;;;;5.43;4.03;;;;;;;;;;5018359;28;20037;-83
2022/05/01 09:49:14;;;;;;;5.28;4.07;;;;;;;;;;5002154;28;20123;-81
2022/05/01 09:51:46;;;;;;;4.63;3.80;;;;;;;;;;5019527;28;20038;-82
2022/05/01 09:54:19;;;;;;;4.95;3.70;;;;;;;;;;5002711;28;20056;-83
2022/05/01 09:56:44;;;;;;;4.32;3.38;;;;;;;;;;5036557;28;20087;-82
2022/05/01 09:59:10;;;;;;;4.85;3.22;;;;;;;;;;5041198;28;20029;-84
2022/05/01 10:01:36;;;;;;;4.80;3.10;;;;;;;;;;4987147;28;20406;-83
2022/05/01 10:04:02;;;;;;;4.40;3.40;;;;;;;;;;5000930;28;20057;-83
2022/05/01 10:06:29;;;;;;;4.78;3.85;;;;;;;;;;5018010;28;20037;-84
2022/05/01 10:08:54;;;;;;;7.65;3.83;;;;;;;;;;5002270;28;20033;-84
2022/05/01 10:11:19;;;;;;;5.22;4.45;;;;;;;;;;4985750;28;20025;-85
2022/05/01 10:13:45;;;;;;;6.18;4.85;;;;;;;;;;5001809;28;20029;-83
2022/05/01 10:16:13;;;;;;;5.18;4.18;;;;;;;;;;5017518;28;20037;-85
2022/05/01 10:18:38;;;;;;;5.78;4.20;;;;;;;;;;5018687;28;20033;-85
2022/05/01 10:21:05;;;;;;;5.68;4.47;;;;;;;;;;5001677;28;20026;-83
2022/05/01 10:23:30;;;;;;;7.30;5.00;;;;;;;;;;4985875;28;20498;-82
2022/05/01 10:26:14;;;;;;;7.63;5.03;;;;;;;;;;5018226;28;20129;-84
2022/05/01 10:28:48;;;;;;;;;;;;;;;;;;5035635;28;20088;-85
2022/05/01 10:34:09;;;;;;;9.52;6.28;;;;;;;;;;4971764;28;20046;-81
2022/05/01 10:36:51;;;;;;;7.93;6.18;;;;;;;;;;4975880;28;20035;-84
2022/05/01 10:39:18;;;;;;;8.55;6.38;;;;;;;;;;4974428;28;20516;-81
2022/05/01 10:41:44;;;;;;;8.98;6.60;;;;;;;;;;4973627;28;20027;-81
2022/05/01 10:44:35;;;;;;;9.23;6.60;;;;;;;;;;4957145;28;20038;-81
2022/05/01 10:47:12;;;;;;;10.95;7.40;;;;;;;;;;4958310;28;20451;-81
2022/05/01 10:49:42;;;;;;;10.32;7.30;;;;;;;;;;4958464;28;20035;-82
2022/05/01 10:52:17;;;;;;;10.52;7.45;;;;;;;;;;4957853;28;20082;-82
2022/05/01 10:54:49;;;;;;;9.07;7.22;;;;;;;;;;4974021;28;20099;-82
2022/05/01 10:57:15;;;;;;;11.60;8.25;;;;;;;;;;4974654;28;20039;-82
2022/05/01 10:59:48;;;;;;;10.63;8.15;;;;;;;;;;4957656;28;20483;-81
2022/05/01 11:02:28;;;;;;;15.63;8.30;;;;;;;;;;4958324;28;20035;-81
2022/05/01 11:04:54;;;;;;;12.18;8.27;;;;;;;;;;4973766;28;20517;-81
2022/05/01 11:07:20;;;;;;;10.73;8.00;;;;;;;;;;4975783;28;20542;-81
2022/05/01 11:09:47;;;;;;;10.85;8.55;;;;;;;;;;4957340;28;20125;-81
2022/05/01 11:12:14;;;;;;;11.75;8.80;;;;;;;;;;4957870;28;20446;-82
2022/05/01 11:14:49;;;;;;;12.05;8.88;;;;;;;;;;4960331;28;20044;-81
2022/05/01 11:17:15;;;;;;;12.05;8.70;;;;;;;;;;4978326;28;20041;-81
2022/05/01 11:19:45;;;;;;;12.15;9.13;;;;;;;;;;4976702;28;20035;-81
2022/05/01 11:22:12;;;;;;;12.25;8.48;;;;;;;;;;4945034;28;20121;-81
2022/05/01 11:24:45;;;;;;;12.73;8.75;;;;;;;;;;4960773;28;20043;-81
2022/05/01 11:27:16;;;;;;;14.50;9.98;;;;;;;;;;4978719;28;20030;-81
2022/05/01 11:30:06;;;;;;;13.48;9.30;;;;;;;;;;4977014;28;20038;-81
2022/05/01 11:33:06;;;;;;;12.07;8.55;;;;;;;;;;4978160;28;20104;-81
2022/05/01 11:36:00;;;;;;;13.63;7.97;;;;;;;;;;4971158;28;20050;-81
2022/05/01 11:38:38;;;;;;;10.88;7.78;;;;;;;;;;4978404;28;20027;-81
2022/05/01 11:41:03;;;;;;;10.68;7.20;;;;;;;;;;4978250;28;20122;-81
2022/05/01 11:43:29;;;;;;;8.15;6.43;;;;;;;;;;4960736;28;20467;-81
2022/05/01 11:46:04;;;;;;;9.73;7.03;;;;;;;;;;4959486;28;20039;-81
2022/05/01 11:48:30;;;;;;;10.50;7.32;;;;;;;;;;4960436;28;20066;-81
2022/05/01 11:50:58;;;;;;;9.85;6.75;;;;;;;;;;4960410;28;20150;-81
2022/05/01 11:53:31;;;;;;;9.48;7.20;;;;;;;;;;4977279;28;20035;-81
2022/05/01 12:04:33;;;;;;;9.55;7.05;;;;;;;;;;4975949;28;20043;-81
2022/05/01 12:07:19;;;;;;;10.23;7.38;;;;;;;;;;4960511;28;20094;-81
2022/05/01 12:09:46;;;;;;;9.82;7.18;;;;;;;;;;4960249;28;20125;-81
2022/05/01 12:12:12;;;;;;;12.68;7.95;;;;;;;;;;4960131;28;20057;-81
2022/05/01 12:14:39;;;;;;;9.13;6.90;;;;;;;;;;4959163;28;20073;-81
2022/05/01 12:17:18;;;;;;;10.73;6.85;;;;;;;;;;4977723;28;20047;-81
2022/05/01 12:19:48;;;;;;;9.38;6.75;;;;;;;;;;4944372;28;20035;-81
2022/05/01 12:22:16;;;;;;;10.80;7.03;;;;;;;;;;4975903;28;20058;-81
2022/05/01 12:24:43;;;;;;;9.25;6.93;;;;;;;;;;4943275;28;20568;-81
2022/05/01 12:27:09;;;;;;;9.23;6.43;;;;;;;;;;4976026;28;20033;-81
2022/05/01 12:29:35;;;;;;;8.07;5.88;;;;;;;;;;4959775;28;20031;-81
2022/05/01 12:32:08;;;;;;;9.55;6.63;;;;;;;;;;4976042;28;20039;-81
2022/05/01 12:34:56;;;;;;;9.15;6.53;;;;;;;;;;4959279;28;20039;-81
2022/05/01 12:37:24;;;;;;;9.25;6.68;;;;;;;;;;4977263;28;20026;-81
2022/05/01 12:40:10;;;;;;;9.88;7.38;;;;;;;;;;4959407;28;20415;-81
2022/05/01 12:45:38;;;;;;;8.65;6.30;;;;;;;;;;4975865;28;20035;-81
2022/05/01 12:48:05;;;;;;;9.85;6.32;;;;;;;;;;4958916;28;20554;-81
2022/05/01 12:50:31;;;;;;;9.35;6.85;;;;;;;;;;4976349;28;20400;-81
2022/05/01 12:52:59;;;;;;;9.00;6.55;;;;;;;;;;4975319;28;20031;-81
2022/05/01 12:55:34;;;;;;;8.07;5.65;;;;;;;;;;4974996;28;20097;-81
2022/05/01 12:58:11;;;;;;;6.47;4.90;;;;;;;;;;4975978;28;20039;-81
2022/05/01 13:00:41;;;;;;;6.82;4.90;;;;;;;;;;4958868;28;20043;-81
2022/05/01 13:03:33;;;;;;;6.07;4.43;;;;;;;;;;4975856;28;20027;-81
2022/05/01 13:06:15;;;;;;;6.22;4.38;;;;;;;;;;4959140;28;20035;-81
2022/05/01 13:08:41;;;;;;;6.40;4.38;;;;;;;;;;4958678;28;20034;-81
2022/05/01 13:11:17;;;;;;;6.50;5.00;;;;;;;;;;4974949;28;20041;-80
2022/05/01 13:13:46;;;;;;;6.43;4.55;;;;;;;;;;4974747;28;20070;-81
2022/05/01 13:16:13;;;;;;;6.95;5.38;;;;;;;;;;4973959;28;20077;-81
2022/05/01 13:18:38;;;;;;;6.80;5.20;;;;;;;;;;4943680;28;20456;-81
2022/05/01 13:21:05;;;;;;;8.20;5.88;;;;;;;;;;4975952;28;20078;-81
2022/05/01 13:23:30;;;;;;;8.73;6.28;;;;;;;;;;4975203;28;20066;-81
2022/05/01 13:25:55;;;;;;;9.85;6.03;;;;;;;;;;4958556;28;20121;-81
2022/05/01 13:28:21;;;;;;;8.98;5.97;;;;;;;;;;4958944;28;20431;-81
2022/05/01 13:30:47;;;;;;;8.95;6.30;;;;;;;;;;4975352;28;20106;-80
2022/05/01 13:33:12;;;;;;;9.68;6.90;;;;;;;;;;4975853;28;20500;-81
2022/05/01 13:35:38;;;;;;;10.68;7.40;;;;;;;;;;4975265;28;20035;-81
2022/05/01 13:38:03;;;;;;;11.73;6.68;;;;;;;;;;4973868;28;20117;-81
2022/05/01 13:45:57;;;;;;;;;;;;;;;;;;4945116;28;20062;-81
2022/05/01 13:48:22;;;;;;;9.15;5.97;;;;;;;;;;4975206;28;20005;-82
2022/05/01 13:50:48;;;;;;;8.63;6.25;;;;;;;;;;4958330;28;20030;-81
2022/05/01 13:53:13;;;;;;;7.40;4.82;;;;;;;;;;4974595;28;20105;-81
2022/05/01 13:55:39;;;;;;;6.40;4.95;;;;;;;;;;4973615;28;20509;-80
2022/05/01 13:58:06;;;;;;;7.15;5.80;;;;;;;;;;4957602;28;20045;-82
2022/05/01 14:00:33;;;;;;;6.80;4.88;;;;;;;;;;4974101;28;20093;-82
2022/05/01 14:03:00;;;;;;;6.78;4.57;;;;;;;;;;4973981;28;20043;-82
2022/05/01 14:05:25;;;;;;;10.25;7.28;;;;;;;;;;4973728;28;20054;-82
2022/05/01 14:07:51;;;;;;;12.35;8.32;;;;;;;;;;4974355;28;20039;-82
2022/05/01 14:10:16;;;;;;;10.60;7.32;;;;;;;;;;4974316;28;20053;-81
2022/05/01 14:12:42;;;;;;;11.65;7.20;;;;;;;;;;4975274;28;20117;-80
2022/05/01 14:15:08;;;;;;;9.93;7.05;;;;;;;;;;4957647;28;20070;-83
2022/05/01 14:17:33;;;;;;;9.20;6.40;;;;;;;;;;4976310;28;20062;-81
2022/05/01 14:19:59;;;;;;;9.15;6.50;;;;;;;;;;4975625;28;20563;-81
2022/05/01 14:22:24;;;;;;;8.60;5.78;;;;;;;;;;4975700;28;20061;-81
2022/05/01 14:24:51;;;;;;;8.93;6.03;;;;;;;;;;4957583;28;20038;-81
2022/05/01 14:27:17;;;;;;;7.72;5.55;;;;;;;;;;4958370;28;20037;-81
2022/05/01 14:29:43;;;;;;;9.95;6.93;;;;;;;;;;4975689;28;20472;-80
2022/05/01 14:32:14;;;;;;;11.20;7.85;;;;;;;;;;4975029;28;20061;-81
2022/05/01 14:34:57;;;;;;;10.73;7.93;;;;;;;;;;4957411;28;20491;-81
2022/05/01 14:37:57;;;;;;;11.88;8.30;;;;;;;;;;4975102;28;20074;-81
2022/05/01 14:40:23;;;;;;;11.52;8.40;;;;;;;;;;4975307;28;20039;-81
2022/05/01 14:42:50;;;;;;;11.52;7.65;;;;;;;;;;4974137;28;20046;-80
2022/05/01 14:45:17;;;;;;;12.85;8.52;;;;;;;;;;4957098;28;20038;-80
2022/05/01 14:48:06;;;;;;;10.00;7.55;;;;;;;;;;4957949;28;20102;-81
2022/05/01 14:50:32;;;;;;;10.27;7.30;;;;;;;;;;4961212;28;20027;-81
2022/05/01 14:52:57;;;;;;;9.27;6.95;;;;;;;;;;4961632;28;20412;-80
2022/05/01 14:55:24;;;;;;;10.00;7.05;;;;;;;;;;4977212;28;20377;-82
2022/05/01 14:57:54;;;;;;;9.93;6.63;;;;;;;;;;4978280;28;20054;-81
2022/05/01 15:08:37;;;;;;;8.50;6.25;;;;;;;;;;4978815;28;20035;-81
2022/05/01 15:11:02;;;;;;;7.80;5.57;;;;;;;;;;4977463;28;20039;-81
2022/05/01 15:13:28;;;;;;;7.40;5.40;;;;;;;;;;4977358;28;20031;-81
2022/05/01 15:16:02;;;;;;;6.43;4.68;;;;;;;;;;4964980;28;20058;-81
2022/05/01 15:18:56;;;;;;;12.13;7.60;;;;;;;;;;4961725;28;20039;-81
2022/05/01 15:22:20;;;;;;;7.70;4.90;;;;;;;;;;4978192;28;20120;-81
2022/05/01 15:24:21;;;;;;;6.65;4.80;;;;;;;;;;4976496;28;20034;-81
2022/05/01 15:26:59;;;;;;;7.20;5.72;;;;;;;;;;4977981;28;20093;-81
2022/05/01 15:29:51;;;;;;;7.53;5.70;;;;;;;;;;4961407;28;20039;-82
2022/05/01 15:32:21;;;;;;;8.20;6.00;;;;;;;;;;4975345;28;20137;-82
2022/05/01 15:34:48;;;;;;;7.82;5.90;;;;;;;;;;4978900;28;20046;-81
2022/05/01 15:37:13;;;;;;;12.98;9.00;;;;;;;;;;4962086;28;20034;-81
2022/05/01 15:39:42;;;;;;;13.25;9.98;;;;;;;;;;4975894;28;20042;-81
2022/05/01 15:42:17;;;;;;;15.77;7.70;;;;;;;;;;4961299;28;20042;-81